Kezdőlap
METAR-TAF:

METAR-TAF

Repülőterek :

Christchurch, Új-Zéland

földrajzi szélesség: 43-29S, földrajzi hosszúság: 172-33E, magasság: 38 m

Jelenlegi meteorológiai megfigyelések

A jelentés 28 perccel ezelõtt készült, 21:00 UTC
Nyugat-délnyugati szél 2 kt
Hőmérséklet 8°C
Páratartalom 81%
Légköri nyomás 1016 hPa
Látótávolság 10 km, vagy több

METAR: NZCH 212100Z AUTO 24002KT 9999 NCD 08/05 Q1016 NOSIG

Idő: 09:28 (21:28 UTC)

Előrejelzés

A jelentés 4 órával és 21 perccel ezelõtt készült, 17:07 UTC
Az előrejelzés 21-én 18 óra UTC és 22-én 18 óra UTC között érvényes
Nyugati szél 5 kt
Látótávolság 10 km, vagy több
22-én 02 óra UTC és 22-én 04 óra UTC között fokozatosan kialakuló
Kelet-északkeleti szél 10 kt
22-én 06 óra UTC és 22-én 08 óra UTC között fokozatosan kialakuló
Különbözõ irányokból fújó szél 2 kt

TAF: NZCH 211707Z 2118/2218 26005KT 9999 NSC BECMG 2202/2204 07010KT BECMG 2206/2208 VRB02KT

Meteorológiai megfigyelések és előrejelzések több, mint 4000 repülőtéren (METAR és TAF jelentéseket).

A térképen piros és sárga pontok jelzik az elérhető meteorológiai állomásokat.

Mozgassa az egeret a pont fölött, hogy megjelenjen az állomás neve.

Azután kattintson az időjárási megfigyelések és előrejelzések megtekintéséhez.

A térkép megváltoztatása: kattintson a fekete keresztel jelölt zöld gombra ráközelítéshez, a vonallal jelölt zöld gombra távolításhoz, vagy a zöld nyilakra a szomszédos térképek eléréséhez.


METAR-TAF: